sensor_id;sensor_type;location;lat;lon;timestamp;P1;durP1;ratioP1;P2;durP2;ratioP2
38479;SDS011;62333;51.980;5.934;2023-10-13T00:02:03;6.90;;;4.22;;
38479;SDS011;62333;51.980;5.934;2023-10-13T00:04:30;5.55;;;3.95;;
38479;SDS011;62333;51.980;5.934;2023-10-13T00:07:03;8.63;;;4.88;;
38479;SDS011;62333;51.980;5.934;2023-10-13T00:09:33;7.03;;;3.85;;
38479;SDS011;62333;51.980;5.934;2023-10-13T00:12:03;5.90;;;3.67;;
38479;SDS011;62333;51.980;5.934;2023-10-13T00:14:30;6.60;;;3.63;;
38479;SDS011;62333;51.980;5.934;2023-10-13T00:17:02;4.70;;;3.53;;
38479;SDS011;62333;51.980;5.934;2023-10-13T00:22:03;4.03;;;2.80;;
38479;SDS011;62333;51.980;5.934;2023-10-13T00:24:34;4.55;;;2.97;;
38479;SDS011;62333;51.980;5.934;2023-10-13T00:27:08;8.93;;;2.97;;
38479;SDS011;62333;51.980;5.934;2023-10-13T00:30:10;3.58;;;2.80;;
38479;SDS011;62333;51.980;5.934;2023-10-13T00:32:50;5.45;;;3.00;;
38479;SDS011;62333;51.980;5.934;2023-10-13T00:35:26;5.78;;;3.28;;
38479;SDS011;62333;51.980;5.934;2023-10-13T00:38:01;5.95;;;3.20;;
38479;SDS011;62333;51.980;5.934;2023-10-13T00:40:42;3.83;;;2.15;;
38479;SDS011;62333;51.980;5.934;2023-10-13T00:43:09;3.78;;;2.38;;
38479;SDS011;62333;51.980;5.934;2023-10-13T00:48:31;2.88;;;1.77;;
38479;SDS011;62333;51.980;5.934;2023-10-13T00:50:59;4.45;;;2.72;;
38479;SDS011;62333;51.980;5.934;2023-10-13T00:53:32;12.00;;;4.15;;
38479;SDS011;62333;51.980;5.934;2023-10-13T00:56:09;3.80;;;2.40;;
38479;SDS011;62333;51.980;5.934;2023-10-13T00:58:46;4.55;;;3.28;;
38479;SDS011;62333;51.980;5.934;2023-10-13T01:01:12;4.47;;;3.08;;
38479;SDS011;62333;51.980;5.934;2023-10-13T01:03:44;4.60;;;3.17;;
38479;SDS011;62333;51.980;5.934;2023-10-13T01:06:11;4.07;;;2.60;;
38479;SDS011;62333;51.980;5.934;2023-10-13T01:08:38;4.65;;;2.30;;
38479;SDS011;62333;51.980;5.934;2023-10-13T01:11:04;5.05;;;2.78;;
38479;SDS011;62333;51.980;5.934;2023-10-13T01:13:33;6.95;;;3.22;;
38479;SDS011;62333;51.980;5.934;2023-10-13T01:16:02;3.53;;;2.35;;
38479;SDS011;62333;51.980;5.934;2023-10-13T01:18:29;7.93;;;2.60;;
38479;SDS011;62333;51.980;5.934;2023-10-13T01:20:55;5.43;;;2.35;;
38479;SDS011;62333;51.980;5.934;2023-10-13T01:23:25;4.70;;;2.33;;
38479;SDS011;62333;51.980;5.934;2023-10-13T01:25:54;4.15;;;2.10;;
38479;SDS011;62333;51.980;5.934;2023-10-13T01:28:22;6.65;;;3.13;;
38479;SDS011;62333;51.980;5.934;2023-10-13T01:30:49;3.50;;;1.80;;
38479;SDS011;62333;51.980;5.934;2023-10-13T01:33:18;4.43;;;2.70;;
38479;SDS011;62333;51.980;5.934;2023-10-13T01:35:57;3.95;;;1.98;;
38479;SDS011;62333;51.980;5.934;2023-10-13T01:38:24;3.38;;;1.67;;
38479;SDS011;62333;51.980;5.934;2023-10-13T01:40:53;4.80;;;3.13;;
38479;SDS011;62333;51.980;5.934;2023-10-13T01:43:21;4.07;;;2.33;;
38479;SDS011;62333;51.980;5.934;2023-10-13T01:45:48;3.47;;;2.33;;
38479;SDS011;62333;51.980;5.934;2023-10-13T01:48:15;4.00;;;2.28;;
38479;SDS011;62333;51.980;5.934;2023-10-13T01:50:43;6.30;;;2.30;;
38479;SDS011;62333;51.980;5.934;2023-10-13T01:53:24;4.53;;;1.98;;
38479;SDS011;62333;51.980;5.934;2023-10-13T01:55:54;3.72;;;2.20;;
38479;SDS011;62333;51.980;5.934;2023-10-13T01:58:22;4.68;;;1.30;;
38479;SDS011;62333;51.980;5.934;2023-10-13T02:00:48;6.90;;;1.88;;
38479;SDS011;62333;51.980;5.934;2023-10-13T02:03:14;3.00;;;1.95;;
38479;SDS011;62333;51.980;5.934;2023-10-13T02:05:44;4.07;;;1.95;;
38479;SDS011;62333;51.980;5.934;2023-10-13T02:08:18;3.72;;;1.75;;
38479;SDS011;62333;51.980;5.934;2023-10-13T02:10:51;2.53;;;1.55;;
38479;SDS011;62333;51.980;5.934;2023-10-13T02:13:22;7.53;;;1.75;;
38479;SDS011;62333;51.980;5.934;2023-10-13T02:15:48;5.82;;;2.08;;
38479;SDS011;62333;51.980;5.934;2023-10-13T02:18:18;9.18;;;2.92;;
38479;SDS011;62333;51.980;5.934;2023-10-13T02:21:02;5.20;;;2.40;;
38479;SDS011;62333;51.980;5.934;2023-10-13T02:23:37;3.08;;;1.75;;
38479;SDS011;62333;51.980;5.934;2023-10-13T02:26:10;4.50;;;1.65;;
38479;SDS011;62333;51.980;5.934;2023-10-13T02:28:39;4.57;;;1.42;;
38479;SDS011;62333;51.980;5.934;2023-10-13T02:31:05;3.63;;;1.65;;
38479;SDS011;62333;51.980;5.934;2023-10-13T02:33:31;2.97;;;1.10;;
38479;SDS011;62333;51.980;5.934;2023-10-13T02:35:58;3.25;;;1.00;;
38479;SDS011;62333;51.980;5.934;2023-10-13T02:38:28;3.35;;;1.38;;
38479;SDS011;62333;51.980;5.934;2023-10-13T02:41:03;3.55;;;1.52;;
38479;SDS011;62333;51.980;5.934;2023-10-13T02:43:35;4.95;;;1.90;;
38479;SDS011;62333;51.980;5.934;2023-10-13T02:46:01;3.67;;;1.45;;
38479;SDS011;62333;51.980;5.934;2023-10-13T02:48:28;6.10;;;1.55;;
38479;SDS011;62333;51.980;5.934;2023-10-13T02:51:07;2.88;;;0.82;;
38479;SDS011;62333;51.980;5.934;2023-10-13T02:53:46;3.97;;;1.92;;
38479;SDS011;62333;51.980;5.934;2023-10-13T02:58:46;2.13;;;0.90;;
38479;SDS011;62333;51.980;5.934;2023-10-13T03:01:21;3.70;;;1.45;;
38479;SDS011;62333;51.980;5.934;2023-10-13T03:06:20;3.63;;;1.05;;
38479;SDS011;62333;51.980;5.934;2023-10-13T03:08:48;3.13;;;0.90;;
38479;SDS011;62333;51.980;5.934;2023-10-13T03:11:14;2.92;;;0.90;;
38479;SDS011;62333;51.980;5.934;2023-10-13T03:13:46;3.00;;;0.90;;
38479;SDS011;62333;51.980;5.934;2023-10-13T03:16:15;2.55;;;1.00;;
38479;SDS011;62333;51.980;5.934;2023-10-13T03:18:44;2.42;;;1.00;;
38479;SDS011;62333;51.980;5.934;2023-10-13T03:21:21;2.85;;;1.77;;
38479;SDS011;62333;51.980;5.934;2023-10-13T03:23:57;3.35;;;1.35;;
38479;SDS011;62333;51.980;5.934;2023-10-13T03:26:30;2.65;;;1.20;;
38479;SDS011;62333;51.980;5.934;2023-10-13T03:29:09;4.60;;;1.35;;
38479;SDS011;62333;51.980;5.934;2023-10-13T03:31:38;2.50;;;0.80;;
38479;SDS011;62333;51.980;5.934;2023-10-13T03:34:05;2.50;;;0.90;;
38479;SDS011;62333;51.980;5.934;2023-10-13T03:36:34;1.77;;;0.70;;
38479;SDS011;62333;51.980;5.934;2023-10-13T03:39:20;3.65;;;0.70;;
38479;SDS011;62333;51.980;5.934;2023-10-13T03:41:52;3.13;;;1.10;;
38479;SDS011;62333;51.980;5.934;2023-10-13T03:44:19;3.08;;;1.45;;
38479;SDS011;62333;51.980;5.934;2023-10-13T03:46:45;3.42;;;1.67;;
38479;SDS011;62333;51.980;5.934;2023-10-13T03:49:14;3.78;;;1.40;;
38479;SDS011;62333;51.980;5.934;2023-10-13T03:51:45;3.88;;;1.35;;
38479;SDS011;62333;51.980;5.934;2023-10-13T03:54:13;2.60;;;1.23;;
38479;SDS011;62333;51.980;5.934;2023-10-13T03:56:41;4.55;;;2.00;;
38479;SDS011;62333;51.980;5.934;2023-10-13T03:59:10;5.32;;;1.67;;
38479;SDS011;62333;51.980;5.934;2023-10-13T04:01:40;5.07;;;1.77;;
38479;SDS011;62333;51.980;5.934;2023-10-13T04:04:09;3.55;;;2.00;;
38479;SDS011;62333;51.980;5.934;2023-10-13T04:06:40;4.32;;;1.75;;
38479;SDS011;62333;51.980;5.934;2023-10-13T04:09:15;5.43;;;2.47;;
38479;SDS011;62333;51.980;5.934;2023-10-13T04:14:32;5.03;;;2.20;;
38479;SDS011;62333;51.980;5.934;2023-10-13T04:17:20;3.75;;;1.70;;
38479;SDS011;62333;51.980;5.934;2023-10-13T04:19:56;4.60;;;2.13;;
38479;SDS011;62333;51.980;5.934;2023-10-13T04:25:25;4.07;;;2.00;;
38479;SDS011;62333;51.980;5.934;2023-10-13T04:28:08;4.78;;;1.73;;
38479;SDS011;62333;51.980;5.934;2023-10-13T04:30:58;5.55;;;3.10;;
38479;SDS011;62333;51.980;5.934;2023-10-13T04:33:32;3.67;;;1.45;;
38479;SDS011;62333;51.980;5.934;2023-10-13T04:36:17;3.78;;;2.05;;
38479;SDS011;62333;51.980;5.934;2023-10-13T04:38:54;4.05;;;2.00;;
38479;SDS011;62333;51.980;5.934;2023-10-13T04:41:36;4.30;;;1.60;;
38479;SDS011;62333;51.980;5.934;2023-10-13T04:44:23;5.30;;;2.50;;
38479;SDS011;62333;51.980;5.934;2023-10-13T04:46:55;3.72;;;1.85;;
38479;SDS011;62333;51.980;5.934;2023-10-13T04:49:25;5.25;;;3.22;;
38479;SDS011;62333;51.980;5.934;2023-10-13T04:52:03;6.07;;;2.80;;
38479;SDS011;62333;51.980;5.934;2023-10-13T04:54:33;7.13;;;2.88;;
38479;SDS011;62333;51.980;5.934;2023-10-13T04:57:11;6.53;;;2.80;;
38479;SDS011;62333;51.980;5.934;2023-10-13T04:59:55;5.30;;;2.67;;
38479;SDS011;62333;51.980;5.934;2023-10-13T05:02:43;6.03;;;2.88;;
38479;SDS011;62333;51.980;5.934;2023-10-13T05:05:25;6.13;;;2.90;;
38479;SDS011;62333;51.980;5.934;2023-10-13T05:08:11;3.50;;;2.40;;
38479;SDS011;62333;51.980;5.934;2023-10-13T05:10:56;4.85;;;2.67;;
38479;SDS011;62333;51.980;5.934;2023-10-13T05:14:00;3.90;;;2.45;;
38479;SDS011;62333;51.980;5.934;2023-10-13T05:16:44;5.07;;;2.75;;
38479;SDS011;62333;51.980;5.934;2023-10-13T05:19:28;6.18;;;3.42;;
38479;SDS011;62333;51.980;5.934;2023-10-13T05:22:12;6.35;;;4.15;;
38479;SDS011;62333;51.980;5.934;2023-10-13T05:24:56;5.63;;;3.65;;
38479;SDS011;62333;51.980;5.934;2023-10-13T05:27:40;6.65;;;3.33;;
38479;SDS011;62333;51.980;5.934;2023-10-13T05:30:24;9.05;;;4.63;;
38479;SDS011;62333;51.980;5.934;2023-10-13T05:33:09;6.13;;;3.78;;
38479;SDS011;62333;51.980;5.934;2023-10-13T05:35:53;4.68;;;3.13;;
38479;SDS011;62333;51.980;5.934;2023-10-13T05:38:37;4.63;;;3.10;;
38479;SDS011;62333;51.980;5.934;2023-10-13T05:41:22;5.25;;;2.47;;
38479;SDS011;62333;51.980;5.934;2023-10-13T05:44:06;5.80;;;2.47;;
38479;SDS011;62333;51.980;5.934;2023-10-13T05:46:50;2.85;;;1.77;;
38479;SDS011;62333;51.980;5.934;2023-10-13T05:49:34;5.78;;;3.00;;
38479;SDS011;62333;51.980;5.934;2023-10-13T05:52:17;4.85;;;2.67;;
38479;SDS011;62333;51.980;5.934;2023-10-13T05:55:02;2.72;;;2.03;;
38479;SDS011;62333;51.980;5.934;2023-10-13T05:57:46;2.90;;;1.52;;
38479;SDS011;62333;51.980;5.934;2023-10-13T06:00:30;3.20;;;1.23;;
38479;SDS011;62333;51.980;5.934;2023-10-13T06:03:14;3.67;;;2.30;;
38479;SDS011;62333;51.980;5.934;2023-10-13T06:05:58;2.42;;;1.30;;
38479;SDS011;62333;51.980;5.934;2023-10-13T06:08:42;3.88;;;1.90;;
38479;SDS011;62333;51.980;5.934;2023-10-13T06:11:26;1.92;;;1.10;;
38479;SDS011;62333;51.980;5.934;2023-10-13T06:14:10;3.58;;;1.40;;
38479;SDS011;62333;51.980;5.934;2023-10-13T06:16:54;3.60;;;1.23;;
38479;SDS011;62333;51.980;5.934;2023-10-13T06:19:40;2.38;;;1.45;;
38479;SDS011;62333;51.980;5.934;2023-10-13T06:22:24;4.80;;;1.90;;
38479;SDS011;62333;51.980;5.934;2023-10-13T06:25:08;3.50;;;1.30;;
38479;SDS011;62333;51.980;5.934;2023-10-13T06:27:52;6.32;;;1.20;;
38479;SDS011;62333;51.980;5.934;2023-10-13T06:30:36;3.20;;;1.20;;
38479;SDS011;62333;51.980;5.934;2023-10-13T06:33:03;2.58;;;1.10;;
38479;SDS011;62333;51.980;5.934;2023-10-13T06:35:30;3.10;;;1.50;;
38479;SDS011;62333;51.980;5.934;2023-10-13T06:37:56;3.45;;;1.58;;
38479;SDS011;62333;51.980;5.934;2023-10-13T06:40:25;4.20;;;1.60;;
38479;SDS011;62333;51.980;5.934;2023-10-13T06:42:51;2.17;;;1.00;;
38479;SDS011;62333;51.980;5.934;2023-10-13T06:45:18;3.25;;;1.30;;
38479;SDS011;62333;51.980;5.934;2023-10-13T06:47:45;2.97;;;1.30;;
38479;SDS011;62333;51.980;5.934;2023-10-13T06:50:12;5.22;;;1.55;;
38479;SDS011;62333;51.980;5.934;2023-10-13T06:52:47;3.08;;;0.95;;
38479;SDS011;62333;51.980;5.934;2023-10-13T06:55:12;3.10;;;1.13;;
38479;SDS011;62333;51.980;5.934;2023-10-13T06:57:58;2.20;;;0.77;;
38479;SDS011;62333;51.980;5.934;2023-10-13T07:00:27;3.67;;;1.17;;
38479;SDS011;62333;51.980;5.934;2023-10-13T07:03:04;4.50;;;1.60;;
38479;SDS011;62333;51.980;5.934;2023-10-13T07:05:43;4.03;;;1.55;;
38479;SDS011;62333;51.980;5.934;2023-10-13T07:08:09;8.00;;;5.10;;
38479;SDS011;62333;51.980;5.934;2023-10-13T07:10:54;11.27;;;8.43;;
38479;SDS011;62333;51.980;5.934;2023-10-13T07:13:31;8.95;;;6.68;;
38479;SDS011;62333;51.980;5.934;2023-10-13T07:16:01;7.57;;;3.88;;
38479;SDS011;62333;51.980;5.934;2023-10-13T07:18:37;4.43;;;2.83;;
38479;SDS011;62333;51.980;5.934;2023-10-13T07:21:14;8.27;;;4.05;;
38479;SDS011;62333;51.980;5.934;2023-10-13T07:23:40;10.50;;;3.92;;
38479;SDS011;62333;51.980;5.934;2023-10-13T07:26:25;8.75;;;3.15;;
38479;SDS011;62333;51.980;5.934;2023-10-13T07:28:51;4.40;;;2.33;;
38479;SDS011;62333;51.980;5.934;2023-10-13T07:31:17;4.38;;;1.85;;
38479;SDS011;62333;51.980;5.934;2023-10-13T07:33:45;5.90;;;1.98;;
38479;SDS011;62333;51.980;5.934;2023-10-13T07:36:12;5.50;;;1.90;;
38479;SDS011;62333;51.980;5.934;2023-10-13T07:38:47;5.15;;;1.48;;
38479;SDS011;62333;51.980;5.934;2023-10-13T07:41:24;6.10;;;1.65;;
38479;SDS011;62333;51.980;5.934;2023-10-13T07:43:55;2.65;;;1.52;;
38479;SDS011;62333;51.980;5.934;2023-10-13T07:46:22;3.97;;;1.08;;
38479;SDS011;62333;51.980;5.934;2023-10-13T07:48:56;3.65;;;1.25;;
38479;SDS011;62333;51.980;5.934;2023-10-13T07:51:33;2.15;;;1.13;;
38479;SDS011;62333;51.980;5.934;2023-10-13T07:54:09;4.35;;;2.03;;
38479;SDS011;62333;51.980;5.934;2023-10-13T07:56:38;6.45;;;1.70;;
38479;SDS011;62333;51.980;5.934;2023-10-13T07:59:04;5.63;;;1.85;;
38479;SDS011;62333;51.980;5.934;2023-10-13T08:01:33;4.55;;;1.95;;
38479;SDS011;62333;51.980;5.934;2023-10-13T08:03:59;4.57;;;1.17;;
38479;SDS011;62333;51.980;5.934;2023-10-13T08:06:40;4.68;;;1.45;;
38479;SDS011;62333;51.980;5.934;2023-10-13T08:09:08;9.63;;;2.65;;
38479;SDS011;62333;51.980;5.934;2023-10-13T08:11:37;5.43;;;2.45;;
38479;SDS011;62333;51.980;5.934;2023-10-13T08:14:04;6.45;;;2.10;;
38479;SDS011;62333;51.980;5.934;2023-10-13T08:16:37;3.53;;;1.55;;
38479;SDS011;62333;51.980;5.934;2023-10-13T08:19:20;9.65;;;2.80;;
38479;SDS011;62333;51.980;5.934;2023-10-13T08:21:53;5.38;;;2.15;;
38479;SDS011;62333;51.980;5.934;2023-10-13T08:24:39;4.70;;;1.48;;
38479;SDS011;62333;51.980;5.934;2023-10-13T08:27:06;5.45;;;2.30;;
38479;SDS011;62333;51.980;5.934;2023-10-13T08:29:50;5.13;;;1.60;;
38479;SDS011;62333;51.980;5.934;2023-10-13T08:32:16;5.18;;;1.65;;
38479;SDS011;62333;51.980;5.934;2023-10-13T08:34:54;6.10;;;1.90;;
38479;SDS011;62333;51.980;5.934;2023-10-13T08:37:21;8.73;;;2.70;;
38479;SDS011;62333;51.980;5.934;2023-10-13T08:39:50;11.73;;;2.47;;
38479;SDS011;62333;51.980;5.934;2023-10-13T08:42:43;5.22;;;2.08;;
38479;SDS011;62333;51.980;5.934;2023-10-13T08:45:10;5.57;;;1.80;;
38479;SDS011;62333;51.980;5.934;2023-10-13T08:47:51;10.00;;;2.65;;
38479;SDS011;62333;51.980;5.934;2023-10-13T08:50:22;5.78;;;1.55;;
38479;SDS011;62333;51.980;5.934;2023-10-13T08:53:13;4.50;;;1.67;;
38479;SDS011;62333;51.980;5.934;2023-10-13T08:58:35;9.25;;;1.80;;
38479;SDS011;62333;51.980;5.934;2023-10-13T09:01:27;6.80;;;2.30;;
38479;SDS011;62333;51.980;5.934;2023-10-13T09:04:13;8.68;;;2.10;;
38479;SDS011;62333;51.980;5.934;2023-10-13T09:06:44;8.15;;;2.20;;
38479;SDS011;62333;51.980;5.934;2023-10-13T09:09:44;4.07;;;2.43;;
38479;SDS011;62333;51.980;5.934;2023-10-13T09:12:16;6.57;;;2.00;;
38479;SDS011;62333;51.980;5.934;2023-10-13T09:15:08;4.97;;;1.90;;
38479;SDS011;62333;51.980;5.934;2023-10-13T09:17:47;10.25;;;2.40;;
38479;SDS011;62333;51.980;5.934;2023-10-13T09:20:19;6.60;;;2.20;;
38479;SDS011;62333;51.980;5.934;2023-10-13T09:23:09;4.40;;;2.13;;
38479;SDS011;62333;51.980;5.934;2023-10-13T09:25:38;8.60;;;2.55;;
38479;SDS011;62333;51.980;5.934;2023-10-13T09:28:23;5.00;;;1.90;;
38479;SDS011;62333;51.980;5.934;2023-10-13T09:30:51;4.28;;;1.73;;
38479;SDS011;62333;51.980;5.934;2023-10-13T09:33:24;3.35;;;1.60;;
38479;SDS011;62333;51.980;5.934;2023-10-13T09:36:12;5.88;;;2.05;;
38479;SDS011;62333;51.980;5.934;2023-10-13T09:38:42;7.03;;;2.58;;
38479;SDS011;62333;51.980;5.934;2023-10-13T09:41:28;6.15;;;2.28;;
38479;SDS011;62333;51.980;5.934;2023-10-13T09:43:57;5.65;;;1.73;;
38479;SDS011;62333;51.980;5.934;2023-10-13T09:46:23;3.75;;;1.30;;
38479;SDS011;62333;51.980;5.934;2023-10-13T09:49:14;7.78;;;1.50;;
38479;SDS011;62333;51.980;5.934;2023-10-13T09:51:58;5.47;;;2.63;;
38479;SDS011;62333;51.980;5.934;2023-10-13T09:54:36;3.45;;;1.38;;
38479;SDS011;62333;51.980;5.934;2023-10-13T09:57:16;8.20;;;1.88;;
38479;SDS011;62333;51.980;5.934;2023-10-13T09:59:55;8.00;;;1.90;;
38479;SDS011;62333;51.980;5.934;2023-10-13T10:02:32;4.55;;;1.48;;
38479;SDS011;62333;51.980;5.934;2023-10-13T10:05:00;5.60;;;1.60;;
38479;SDS011;62333;51.980;5.934;2023-10-13T10:07:53;10.13;;;2.05;;
38479;SDS011;62333;51.980;5.934;2023-10-13T10:10:40;6.00;;;2.42;;
38479;SDS011;62333;51.980;5.934;2023-10-13T10:13:39;8.90;;;2.00;;
38479;SDS011;62333;51.980;5.934;2023-10-13T10:16:20;5.97;;;2.05;;
38479;SDS011;62333;51.980;5.934;2023-10-13T10:18:59;6.18;;;2.00;;
38479;SDS011;62333;51.980;5.934;2023-10-13T10:21:35;6.38;;;1.60;;
38479;SDS011;62333;51.980;5.934;2023-10-13T10:24:01;5.15;;;1.92;;
38479;SDS011;62333;51.980;5.934;2023-10-13T10:26:32;5.65;;;2.30;;
38479;SDS011;62333;51.980;5.934;2023-10-13T10:28:58;3.63;;;1.52;;
38479;SDS011;62333;51.980;5.934;2023-10-13T10:31:32;7.43;;;2.72;;
38479;SDS011;62333;51.980;5.934;2023-10-13T10:34:12;7.97;;;2.33;;
38479;SDS011;62333;51.980;5.934;2023-10-13T10:36:39;7.72;;;2.88;;
38479;SDS011;62333;51.980;5.934;2023-10-13T10:39:08;7.82;;;2.10;;
38479;SDS011;62333;51.980;5.934;2023-10-13T10:41:36;7.70;;;2.13;;
38479;SDS011;62333;51.980;5.934;2023-10-13T10:44:11;7.88;;;2.13;;
38479;SDS011;62333;51.980;5.934;2023-10-13T10:47:13;6.07;;;2.10;;
38479;SDS011;62333;51.980;5.934;2023-10-13T10:50:02;6.68;;;3.40;;
38479;SDS011;62333;51.980;5.934;2023-10-13T10:52:54;5.20;;;1.30;;
38479;SDS011;62333;51.980;5.934;2023-10-13T10:55:22;7.75;;;3.42;;
38479;SDS011;62333;51.980;5.934;2023-10-13T10:57:59;6.45;;;2.33;;
38479;SDS011;62333;51.980;5.934;2023-10-13T11:00:26;7.70;;;2.58;;
38479;SDS011;62333;51.980;5.934;2023-10-13T11:03:06;9.00;;;2.60;;
38479;SDS011;62333;51.980;5.934;2023-10-13T11:05:42;7.70;;;2.42;;
38479;SDS011;62333;51.980;5.934;2023-10-13T11:08:21;7.95;;;1.77;;
38479;SDS011;62333;51.980;5.934;2023-10-13T11:11:00;9.32;;;2.58;;
38479;SDS011;62333;51.980;5.934;2023-10-13T11:13:26;4.60;;;2.60;;
38479;SDS011;62333;51.980;5.934;2023-10-13T11:15:56;6.18;;;2.80;;
38479;SDS011;62333;51.980;5.934;2023-10-13T11:18:31;8.90;;;3.15;;
38479;SDS011;62333;51.980;5.934;2023-10-13T11:21:05;7.80;;;2.95;;
38479;SDS011;62333;51.980;5.934;2023-10-13T11:23:32;13.57;;;6.45;;
38479;SDS011;62333;51.980;5.934;2023-10-13T11:26:01;9.70;;;4.03;;
38479;SDS011;62333;51.980;5.934;2023-10-13T11:28:29;11.93;;;5.22;;
38479;SDS011;62333;51.980;5.934;2023-10-13T11:30:57;15.27;;;5.22;;
38479;SDS011;62333;51.980;5.934;2023-10-13T11:33:24;10.88;;;3.65;;
38479;SDS011;62333;51.980;5.934;2023-10-13T11:35:55;9.68;;;2.40;;
38479;SDS011;62333;51.980;5.934;2023-10-13T11:38:25;6.57;;;2.20;;
38479;SDS011;62333;51.980;5.934;2023-10-13T11:40:59;8.30;;;3.00;;
38479;SDS011;62333;51.980;5.934;2023-10-13T11:46:17;8.95;;;2.75;;
38479;SDS011;62333;51.980;5.934;2023-10-13T11:49:00;7.85;;;2.35;;
38479;SDS011;62333;51.980;5.934;2023-10-13T11:51:42;10.80;;;2.53;;
38479;SDS011;62333;51.980;5.934;2023-10-13T11:54:18;8.55;;;2.97;;
38479;SDS011;62333;51.980;5.934;2023-10-13T11:56:47;5.30;;;1.58;;
38479;SDS011;62333;51.980;5.934;2023-10-13T11:59:13;5.55;;;2.95;;
38479;SDS011;62333;51.980;5.934;2023-10-13T12:01:49;8.52;;;2.47;;
38479;SDS011;62333;51.980;5.934;2023-10-13T12:04:35;6.32;;;2.45;;
38479;SDS011;62333;51.980;5.934;2023-10-13T12:07:19;9.07;;;2.80;;
38479;SDS011;62333;51.980;5.934;2023-10-13T12:09:50;8.00;;;2.55;;
38479;SDS011;62333;51.980;5.934;2023-10-13T12:12:22;5.53;;;2.42;;
38479;SDS011;62333;51.980;5.934;2023-10-13T12:14:49;7.07;;;2.33;;
38479;SDS011;62333;51.980;5.934;2023-10-13T12:17:28;7.88;;;2.72;;
38479;SDS011;62333;51.980;5.934;2023-10-13T12:22:25;13.32;;;3.53;;
38479;SDS011;62333;51.980;5.934;2023-10-13T12:25:00;7.47;;;2.65;;
38479;SDS011;62333;51.980;5.934;2023-10-13T12:27:29;10.07;;;3.92;;
38479;SDS011;62333;51.980;5.934;2023-10-13T12:30:11;9.20;;;2.83;;
38479;SDS011;62333;51.980;5.934;2023-10-13T12:32:39;5.72;;;2.70;;
38479;SDS011;62333;51.980;5.934;2023-10-13T12:35:10;9.10;;;3.25;;
38479;SDS011;62333;51.980;5.934;2023-10-13T12:37:35;7.43;;;2.40;;
38479;SDS011;62333;51.980;5.934;2023-10-13T12:40:07;10.27;;;3.25;;
38479;SDS011;62333;51.980;5.934;2023-10-13T12:42:57;6.68;;;2.45;;
38479;SDS011;62333;51.980;5.934;2023-10-13T12:45:45;9.80;;;3.00;;
38479;SDS011;62333;51.980;5.934;2023-10-13T12:48:31;5.90;;;2.33;;
38479;SDS011;62333;51.980;5.934;2023-10-13T12:51:15;10.55;;;2.58;;
38479;SDS011;62333;51.980;5.934;2023-10-13T12:54:00;7.93;;;3.05;;
38479;SDS011;62333;51.980;5.934;2023-10-13T12:56:52;10.70;;;2.65;;
38479;SDS011;62333;51.980;5.934;2023-10-13T12:59:23;9.50;;;3.10;;
38479;SDS011;62333;51.980;5.934;2023-10-13T13:01:51;7.22;;;2.58;;
38479;SDS011;62333;51.980;5.934;2023-10-13T13:04:18;9.32;;;3.17;;
38479;SDS011;62333;51.980;5.934;2023-10-13T13:06:45;10.63;;;2.47;;
38479;SDS011;62333;51.980;5.934;2023-10-13T13:09:15;7.15;;;2.97;;
38479;SDS011;62333;51.980;5.934;2023-10-13T13:11:41;12.73;;;3.28;;
38479;SDS011;62333;51.980;5.934;2023-10-13T13:14:07;8.02;;;2.50;;
38479;SDS011;62333;51.980;5.934;2023-10-13T13:16:33;6.18;;;2.45;;
38479;SDS011;62333;51.980;5.934;2023-10-13T13:18:59;7.05;;;2.17;;
38479;SDS011;62333;51.980;5.934;2023-10-13T13:21:34;8.50;;;2.40;;
38479;SDS011;62333;51.980;5.934;2023-10-13T13:24:01;7.30;;;3.00;;
38479;SDS011;62333;51.980;5.934;2023-10-13T13:26:29;8.38;;;2.60;;
38479;SDS011;62333;51.980;5.934;2023-10-13T13:28:56;6.82;;;3.08;;
38479;SDS011;62333;51.980;5.934;2023-10-13T13:31:22;7.88;;;2.22;;
38479;SDS011;62333;51.980;5.934;2023-10-13T13:33:54;7.85;;;2.42;;
38479;SDS011;62333;51.980;5.934;2023-10-13T13:36:20;9.18;;;2.95;;
38479;SDS011;62333;51.980;5.934;2023-10-13T13:38:47;10.93;;;2.72;;
38479;SDS011;62333;51.980;5.934;2023-10-13T13:41:19;7.88;;;2.75;;
38479;SDS011;62333;51.980;5.934;2023-10-13T13:43:47;6.93;;;2.25;;
38479;SDS011;62333;51.980;5.934;2023-10-13T13:46:21;8.60;;;2.53;;
38479;SDS011;62333;51.980;5.934;2023-10-13T13:48:52;5.63;;;2.95;;
38479;SDS011;62333;51.980;5.934;2023-10-13T13:51:26;10.48;;;2.67;;
38479;SDS011;62333;51.980;5.934;2023-10-13T13:53:53;6.68;;;2.25;;
38479;SDS011;62333;51.980;5.934;2023-10-13T13:56:20;6.70;;;2.05;;
38479;SDS011;62333;51.980;5.934;2023-10-13T13:58:50;9.05;;;3.20;;
38479;SDS011;62333;51.980;5.934;2023-10-13T14:01:17;7.93;;;2.13;;
38479;SDS011;62333;51.980;5.934;2023-10-13T14:03:45;7.72;;;2.50;;
38479;SDS011;62333;51.980;5.934;2023-10-13T14:06:12;7.10;;;2.13;;
38479;SDS011;62333;51.980;5.934;2023-10-13T14:08:48;7.00;;;2.67;;
38479;SDS011;62333;51.980;5.934;2023-10-13T14:11:35;6.55;;;1.70;;
38479;SDS011;62333;51.980;5.934;2023-10-13T14:14:07;7.45;;;1.80;;
38479;SDS011;62333;51.980;5.934;2023-10-13T14:16:41;8.38;;;2.45;;
38479;SDS011;62333;51.980;5.934;2023-10-13T14:19:12;6.90;;;2.33;;
38479;SDS011;62333;51.980;5.934;2023-10-13T14:21:58;8.75;;;2.00;;
38479;SDS011;62333;51.980;5.934;2023-10-13T14:24:25;14.30;;;3.05;;
38479;SDS011;62333;51.980;5.934;2023-10-13T14:26:58;19.05;;;2.05;;
38479;SDS011;62333;51.980;5.934;2023-10-13T14:29:35;6.35;;;1.73;;
38479;SDS011;62333;51.980;5.934;2023-10-13T14:32:05;4.40;;;1.95;;
38479;SDS011;62333;51.980;5.934;2023-10-13T14:34:42;4.03;;;1.60;;
38479;SDS011;62333;51.980;5.934;2023-10-13T14:37:08;8.30;;;2.80;;
38479;SDS011;62333;51.980;5.934;2023-10-13T14:39:38;6.78;;;2.10;;
38479;SDS011;62333;51.980;5.934;2023-10-13T14:42:04;5.65;;;2.08;;
38479;SDS011;62333;51.980;5.934;2023-10-13T14:44:33;9.60;;;2.13;;
38479;SDS011;62333;51.980;5.934;2023-10-13T14:47:00;6.22;;;1.77;;
38479;SDS011;62333;51.980;5.934;2023-10-13T14:49:26;9.57;;;2.03;;
38479;SDS011;62333;51.980;5.934;2023-10-13T14:51:53;5.28;;;1.50;;
38479;SDS011;62333;51.980;5.934;2023-10-13T14:54:20;4.90;;;1.63;;
38479;SDS011;62333;51.980;5.934;2023-10-13T14:57:01;7.18;;;1.55;;
38479;SDS011;62333;51.980;5.934;2023-10-13T14:59:28;3.15;;;1.35;;
38479;SDS011;62333;51.980;5.934;2023-10-13T15:02:03;5.20;;;1.42;;
38479;SDS011;62333;51.980;5.934;2023-10-13T15:04:29;4.82;;;1.63;;
38479;SDS011;62333;51.980;5.934;2023-10-13T15:06:58;8.18;;;1.85;;
38479;SDS011;62333;51.980;5.934;2023-10-13T15:09:27;4.45;;;1.70;;
38479;SDS011;62333;51.980;5.934;2023-10-13T15:11:53;7.97;;;1.63;;
38479;SDS011;62333;51.980;5.934;2023-10-13T15:14:19;6.25;;;1.60;;
38479;SDS011;62333;51.980;5.934;2023-10-13T15:16:45;4.22;;;1.50;;
38479;SDS011;62333;51.980;5.934;2023-10-13T15:19:11;9.02;;;1.90;;
38479;SDS011;62333;51.980;5.934;2023-10-13T15:21:37;6.63;;;1.75;;
38479;SDS011;62333;51.980;5.934;2023-10-13T15:24:05;7.55;;;1.48;;
38479;SDS011;62333;51.980;5.934;2023-10-13T15:29:17;5.63;;;1.85;;
38479;SDS011;62333;51.980;5.934;2023-10-13T15:31:50;4.82;;;1.70;;
38479;SDS011;62333;51.980;5.934;2023-10-13T15:34:25;5.57;;;1.45;;
38479;SDS011;62333;51.980;5.934;2023-10-13T15:36:52;6.28;;;1.73;;
38479;SDS011;62333;51.980;5.934;2023-10-13T15:39:19;3.63;;;1.35;;
38479;SDS011;62333;51.980;5.934;2023-10-13T15:41:49;6.15;;;2.15;;
38479;SDS011;62333;51.980;5.934;2023-10-13T15:44:17;4.95;;;2.22;;
38479;SDS011;62333;51.980;5.934;2023-10-13T15:46:45;5.80;;;1.52;;
38479;SDS011;62333;51.980;5.934;2023-10-13T15:49:14;13.35;;;1.90;;
38479;SDS011;62333;51.980;5.934;2023-10-13T15:51:40;5.28;;;1.23;;
38479;SDS011;62333;51.980;5.934;2023-10-13T15:54:06;5.20;;;1.42;;
38479;SDS011;62333;51.980;5.934;2023-10-13T15:56:40;3.47;;;1.40;;